sensor_id;sensor_type;location;lat;lon;timestamp;P1;durP1;ratioP1;P2;durP2;ratioP2
4210;SDS011;2119;48.828;12.396;2024-03-02T00:00:40;81.00;;;36.15;;
4210;SDS011;2119;48.828;12.396;2024-03-02T00:05:40;67.25;;;33.53;;
4210;SDS011;2119;48.828;12.396;2024-03-02T00:10:41;77.65;;;36.20;;
4210;SDS011;2119;48.828;12.396;2024-03-02T00:20:42;74.53;;;31.87;;
4210;SDS011;2119;48.828;12.396;2024-03-02T00:25:49;74.88;;;35.33;;
4210;SDS011;2119;48.828;12.396;2024-03-02T00:30:56;80.33;;;33.90;;
4210;SDS011;2119;48.828;12.396;2024-03-02T00:35:57;66.50;;;32.70;;
4210;SDS011;2119;48.828;12.396;2024-03-02T00:41:03;72.15;;;31.15;;
4210;SDS011;2119;48.828;12.396;2024-03-02T00:46:04;66.93;;;31.43;;
4210;SDS011;2119;48.828;12.396;2024-03-02T00:51:04;70.95;;;32.83;;
4210;SDS011;2119;48.828;12.396;2024-03-02T00:56:04;73.70;;;32.90;;
4210;SDS011;2119;48.828;12.396;2024-03-02T01:01:09;78.30;;;34.90;;
4210;SDS011;2119;48.828;12.396;2024-03-02T01:06:09;80.87;;;35.73;;
4210;SDS011;2119;48.828;12.396;2024-03-02T01:11:09;86.67;;;35.87;;
4210;SDS011;2119;48.828;12.396;2024-03-02T01:16:10;71.67;;;33.90;;
4210;SDS011;2119;48.828;12.396;2024-03-02T01:21:10;67.67;;;32.67;;
4210;SDS011;2119;48.828;12.396;2024-03-02T01:26:10;68.93;;;34.40;;
4210;SDS011;2119;48.828;12.396;2024-03-02T01:31:10;69.47;;;33.57;;
4210;SDS011;2119;48.828;12.396;2024-03-02T01:36:11;73.37;;;33.90;;
4210;SDS011;2119;48.828;12.396;2024-03-02T01:41:11;75.78;;;33.75;;
4210;SDS011;2119;48.828;12.396;2024-03-02T01:46:11;74.73;;;34.50;;
4210;SDS011;2119;48.828;12.396;2024-03-02T01:51:12;77.97;;;35.30;;
4210;SDS011;2119;48.828;12.396;2024-03-02T01:56:12;80.55;;;34.70;;
4210;SDS011;2119;48.828;12.396;2024-03-02T02:01:12;83.40;;;35.53;;
4210;SDS011;2119;48.828;12.396;2024-03-02T02:06:12;78.25;;;34.55;;
4210;SDS011;2119;48.828;12.396;2024-03-02T02:11:16;84.50;;;35.38;;
4210;SDS011;2119;48.828;12.396;2024-03-02T02:16:16;73.57;;;33.50;;
4210;SDS011;2119;48.828;12.396;2024-03-02T02:21:16;84.77;;;36.30;;
4210;SDS011;2119;48.828;12.396;2024-03-02T02:26:16;67.53;;;33.13;;
4210;SDS011;2119;48.828;12.396;2024-03-02T02:31:16;65.53;;;31.80;;
4210;SDS011;2119;48.828;12.396;2024-03-02T02:36:17;66.70;;;30.70;;
4210;SDS011;2119;48.828;12.396;2024-03-02T02:41:17;85.23;;;34.10;;
4210;SDS011;2119;48.828;12.396;2024-03-02T02:46:17;74.30;;;32.83;;
4210;SDS011;2119;48.828;12.396;2024-03-02T02:51:17;78.43;;;34.17;;
4210;SDS011;2119;48.828;12.396;2024-03-02T02:56:18;77.40;;;36.10;;
4210;SDS011;2119;48.828;12.396;2024-03-02T03:01:18;77.73;;;34.70;;
4210;SDS011;2119;48.828;12.396;2024-03-02T03:06:18;76.77;;;34.43;;
4210;SDS011;2119;48.828;12.396;2024-03-02T03:11:18;71.13;;;33.20;;
4210;SDS011;2119;48.828;12.396;2024-03-02T03:16:18;73.00;;;33.10;;
4210;SDS011;2119;48.828;12.396;2024-03-02T03:21:18;69.90;;;32.90;;
4210;SDS011;2119;48.828;12.396;2024-03-02T03:26:19;69.10;;;31.73;;
4210;SDS011;2119;48.828;12.396;2024-03-02T03:31:19;70.90;;;33.03;;
4210;SDS011;2119;48.828;12.396;2024-03-02T03:36:19;72.10;;;32.65;;
4210;SDS011;2119;48.828;12.396;2024-03-02T03:41:19;74.03;;;34.00;;
4210;SDS011;2119;48.828;12.396;2024-03-02T03:46:19;74.90;;;33.35;;
4210;SDS011;2119;48.828;12.396;2024-03-02T03:51:19;66.23;;;32.43;;
4210;SDS011;2119;48.828;12.396;2024-03-02T03:56:20;66.27;;;32.80;;
4210;SDS011;2119;48.828;12.396;2024-03-02T04:01:20;77.20;;;32.27;;
4210;SDS011;2119;48.828;12.396;2024-03-02T04:06:22;63.30;;;32.10;;
4210;SDS011;2119;48.828;12.396;2024-03-02T04:11:22;69.83;;;33.17;;
4210;SDS011;2119;48.828;12.396;2024-03-02T04:16:22;75.87;;;32.93;;
4210;SDS011;2119;48.828;12.396;2024-03-02T04:21:22;79.10;;;31.37;;
4210;SDS011;2119;48.828;12.396;2024-03-02T04:26:23;73.37;;;32.70;;
4210;SDS011;2119;48.828;12.396;2024-03-02T04:31:23;73.93;;;33.03;;
4210;SDS011;2119;48.828;12.396;2024-03-02T04:36:25;74.90;;;32.23;;
4210;SDS011;2119;48.828;12.396;2024-03-02T04:41:26;74.47;;;32.33;;
4210;SDS011;2119;48.828;12.396;2024-03-02T04:46:26;70.03;;;32.33;;
4210;SDS011;2119;48.828;12.396;2024-03-02T04:51:26;69.47;;;31.33;;
4210;SDS011;2119;48.828;12.396;2024-03-02T04:56:26;74.13;;;29.97;;
4210;SDS011;2119;48.828;12.396;2024-03-02T05:01:53;70.57;;;32.90;;
4210;SDS011;2119;48.828;12.396;2024-03-02T05:06:53;79.15;;;33.00;;
4210;SDS011;2119;48.828;12.396;2024-03-02T05:11:56;56.63;;;29.60;;
4210;SDS011;2119;48.828;12.396;2024-03-02T05:17:10;59.80;;;29.50;;
4210;SDS011;2119;48.828;12.396;2024-03-02T05:22:11;64.97;;;30.03;;
4210;SDS011;2119;48.828;12.396;2024-03-02T05:27:11;92.93;;;32.73;;
4210;SDS011;2119;48.828;12.396;2024-03-02T05:32:11;83.23;;;32.00;;
4210;SDS011;2119;48.828;12.396;2024-03-02T05:37:11;67.03;;;30.80;;
4210;SDS011;2119;48.828;12.396;2024-03-02T05:42:11;71.60;;;32.05;;
4210;SDS011;2119;48.828;12.396;2024-03-02T05:47:11;63.93;;;30.37;;
4210;SDS011;2119;48.828;12.396;2024-03-02T05:52:12;51.90;;;27.37;;
4210;SDS011;2119;48.828;12.396;2024-03-02T05:57:12;66.80;;;30.63;;
4210;SDS011;2119;48.828;12.396;2024-03-02T06:02:31;63.37;;;29.40;;
4210;SDS011;2119;48.828;12.396;2024-03-02T06:07:31;68.27;;;30.57;;
4210;SDS011;2119;48.828;12.396;2024-03-02T06:12:31;55.53;;;28.25;;
4210;SDS011;2119;48.828;12.396;2024-03-02T06:17:32;50.07;;;25.80;;
4210;SDS011;2119;48.828;12.396;2024-03-02T06:22:35;53.00;;;26.90;;
4210;SDS011;2119;48.828;12.396;2024-03-02T06:27:35;50.70;;;27.65;;
4210;SDS011;2119;48.828;12.396;2024-03-02T06:32:35;51.00;;;25.30;;
4210;SDS011;2119;48.828;12.396;2024-03-02T06:37:36;55.27;;;27.37;;
4210;SDS011;2119;48.828;12.396;2024-03-02T06:42:36;53.70;;;26.70;;
4210;SDS011;2119;48.828;12.396;2024-03-02T06:47:37;58.67;;;28.87;;
4210;SDS011;2119;48.828;12.396;2024-03-02T06:52:37;49.90;;;24.77;;
4210;SDS011;2119;48.828;12.396;2024-03-02T06:57:37;52.63;;;28.10;;
4210;SDS011;2119;48.828;12.396;2024-03-02T07:02:37;53.80;;;26.20;;
4210;SDS011;2119;48.828;12.396;2024-03-02T07:07:37;54.88;;;26.30;;
4210;SDS011;2119;48.828;12.396;2024-03-02T07:12:38;52.73;;;26.20;;
4210;SDS011;2119;48.828;12.396;2024-03-02T07:17:38;54.37;;;26.50;;
4210;SDS011;2119;48.828;12.396;2024-03-02T07:22:38;55.33;;;27.20;;
4210;SDS011;2119;48.828;12.396;2024-03-02T07:27:39;53.23;;;25.63;;
4210;SDS011;2119;48.828;12.396;2024-03-02T07:32:40;51.97;;;25.83;;
4210;SDS011;2119;48.828;12.396;2024-03-02T07:37:41;51.93;;;27.97;;
4210;SDS011;2119;48.828;12.396;2024-03-02T07:42:42;49.60;;;26.80;;
4210;SDS011;2119;48.828;12.396;2024-03-02T07:47:42;56.53;;;27.30;;
4210;SDS011;2119;48.828;12.396;2024-03-02T07:52:42;46.80;;;24.23;;
4210;SDS011;2119;48.828;12.396;2024-03-02T07:57:42;50.60;;;25.95;;
4210;SDS011;2119;48.828;12.396;2024-03-02T08:02:43;50.08;;;26.20;;
4210;SDS011;2119;48.828;12.396;2024-03-02T08:07:43;47.85;;;24.58;;
4210;SDS011;2119;48.828;12.396;2024-03-02T08:12:43;47.23;;;24.17;;
4210;SDS011;2119;48.828;12.396;2024-03-02T08:17:44;50.67;;;27.23;;
4210;SDS011;2119;48.828;12.396;2024-03-02T08:22:49;52.93;;;25.97;;
4210;SDS011;2119;48.828;12.396;2024-03-02T08:27:49;56.10;;;27.40;;
4210;SDS011;2119;48.828;12.396;2024-03-02T08:32:50;49.03;;;25.97;;
4210;SDS011;2119;48.828;12.396;2024-03-02T08:37:50;54.10;;;26.57;;
4210;SDS011;2119;48.828;12.396;2024-03-02T08:42:50;49.20;;;25.15;;
4210;SDS011;2119;48.828;12.396;2024-03-02T08:47:50;50.47;;;26.10;;
4210;SDS011;2119;48.828;12.396;2024-03-02T08:52:50;49.30;;;27.10;;
4210;SDS011;2119;48.828;12.396;2024-03-02T08:57:51;57.53;;;27.27;;
4210;SDS011;2119;48.828;12.396;2024-03-02T09:02:51;59.73;;;27.43;;
4210;SDS011;2119;48.828;12.396;2024-03-02T09:07:51;59.77;;;27.70;;
4210;SDS011;2119;48.828;12.396;2024-03-02T09:12:51;55.77;;;26.60;;
4210;SDS011;2119;48.828;12.396;2024-03-02T09:17:52;62.63;;;29.25;;
4210;SDS011;2119;48.828;12.396;2024-03-02T09:22:52;56.28;;;26.83;;
4210;SDS011;2119;48.828;12.396;2024-03-02T09:27:52;69.67;;;29.90;;
4210;SDS011;2119;48.828;12.396;2024-03-02T09:32:52;57.60;;;27.40;;
4210;SDS011;2119;48.828;12.396;2024-03-02T09:37:52;54.13;;;25.67;;
4210;SDS011;2119;48.828;12.396;2024-03-02T09:42:53;51.20;;;24.93;;
4210;SDS011;2119;48.828;12.396;2024-03-02T09:47:54;51.60;;;25.20;;
4210;SDS011;2119;48.828;12.396;2024-03-02T09:52:54;50.37;;;23.77;;
4210;SDS011;2119;48.828;12.396;2024-03-02T09:57:55;44.63;;;23.75;;
4210;SDS011;2119;48.828;12.396;2024-03-02T10:02:56;52.30;;;24.90;;
4210;SDS011;2119;48.828;12.396;2024-03-02T10:08:01;47.53;;;24.17;;
4210;SDS011;2119;48.828;12.396;2024-03-02T10:13:06;47.50;;;23.67;;
4210;SDS011;2119;48.828;12.396;2024-03-02T10:18:10;43.23;;;22.87;;
4210;SDS011;2119;48.828;12.396;2024-03-02T10:23:15;46.40;;;22.80;;
4210;SDS011;2119;48.828;12.396;2024-03-02T10:28:16;43.83;;;23.03;;
4210;SDS011;2119;48.828;12.396;2024-03-02T10:33:17;42.97;;;22.30;;
4210;SDS011;2119;48.828;12.396;2024-03-02T10:38:17;49.57;;;24.50;;
4210;SDS011;2119;48.828;12.396;2024-03-02T10:43:17;46.47;;;22.90;;
4210;SDS011;2119;48.828;12.396;2024-03-02T10:48:19;49.30;;;24.40;;
4210;SDS011;2119;48.828;12.396;2024-03-02T10:53:19;44.63;;;23.13;;
4210;SDS011;2119;48.828;12.396;2024-03-02T10:58:19;45.73;;;24.87;;
4210;SDS011;2119;48.828;12.396;2024-03-02T11:03:19;46.20;;;24.57;;
4210;SDS011;2119;48.828;12.396;2024-03-02T11:08:20;48.20;;;23.88;;
4210;SDS011;2119;48.828;12.396;2024-03-02T11:13:32;43.47;;;23.40;;
4210;SDS011;2119;48.828;12.396;2024-03-02T11:18:33;46.73;;;23.90;;
4210;SDS011;2119;48.828;12.396;2024-03-02T11:23:34;44.87;;;23.43;;
4210;SDS011;2119;48.828;12.396;2024-03-02T11:28:35;49.70;;;24.60;;
4210;SDS011;2119;48.828;12.396;2024-03-02T11:33:36;50.37;;;24.77;;
4210;SDS011;2119;48.828;12.396;2024-03-02T11:38:36;44.78;;;22.67;;
4210;SDS011;2119;48.828;12.396;2024-03-02T11:43:37;45.15;;;23.17;;
4210;SDS011;2119;48.828;12.396;2024-03-02T11:48:39;43.30;;;24.47;;
4210;SDS011;2119;48.828;12.396;2024-03-02T11:53:39;44.03;;;24.13;;
4210;SDS011;2119;48.828;12.396;2024-03-02T11:58:40;45.53;;;22.90;;
4210;SDS011;2119;48.828;12.396;2024-03-02T12:03:41;40.87;;;23.47;;
4210;SDS011;2119;48.828;12.396;2024-03-02T12:08:41;41.10;;;23.70;;
4210;SDS011;2119;48.828;12.396;2024-03-02T12:13:41;41.60;;;22.93;;
4210;SDS011;2119;48.828;12.396;2024-03-02T12:18:51;42.27;;;23.00;;
4210;SDS011;2119;48.828;12.396;2024-03-02T12:23:51;45.47;;;22.87;;
4210;SDS011;2119;48.828;12.396;2024-03-02T12:28:51;45.85;;;24.23;;
4210;SDS011;2119;48.828;12.396;2024-03-02T12:33:51;42.73;;;23.17;;
4210;SDS011;2119;48.828;12.396;2024-03-02T12:38:55;45.63;;;23.45;;
4210;SDS011;2119;48.828;12.396;2024-03-02T12:43:55;40.43;;;23.20;;
4210;SDS011;2119;48.828;12.396;2024-03-02T12:48:55;37.90;;;21.73;;
4210;SDS011;2119;48.828;12.396;2024-03-02T12:53:56;41.35;;;22.40;;
4210;SDS011;2119;48.828;12.396;2024-03-02T12:58:57;43.60;;;22.40;;
4210;SDS011;2119;48.828;12.396;2024-03-02T13:03:58;38.17;;;22.97;;
4210;SDS011;2119;48.828;12.396;2024-03-02T13:08:58;37.30;;;21.13;;
4210;SDS011;2119;48.828;12.396;2024-03-02T13:14:00;40.50;;;21.70;;
4210;SDS011;2119;48.828;12.396;2024-03-02T13:19:00;37.00;;;21.70;;
4210;SDS011;2119;48.828;12.396;2024-03-02T13:24:00;38.00;;;21.20;;
4210;SDS011;2119;48.828;12.396;2024-03-02T13:29:01;33.47;;;20.67;;
4210;SDS011;2119;48.828;12.396;2024-03-02T13:34:01;34.20;;;20.43;;
4210;SDS011;2119;48.828;12.396;2024-03-02T13:39:01;34.93;;;20.50;;
4210;SDS011;2119;48.828;12.396;2024-03-02T13:44:02;37.53;;;21.47;;
4210;SDS011;2119;48.828;12.396;2024-03-02T13:49:03;35.90;;;20.67;;
4210;SDS011;2119;48.828;12.396;2024-03-02T13:54:03;34.23;;;20.07;;
4210;SDS011;2119;48.828;12.396;2024-03-02T13:59:03;34.50;;;19.47;;
4210;SDS011;2119;48.828;12.396;2024-03-02T14:04:04;32.50;;;18.97;;
4210;SDS011;2119;48.828;12.396;2024-03-02T14:09:05;34.67;;;18.90;;
4210;SDS011;2119;48.828;12.396;2024-03-02T14:14:05;30.98;;;16.40;;
4210;SDS011;2119;48.828;12.396;2024-03-02T14:19:05;23.63;;;15.50;;
4210;SDS011;2119;48.828;12.396;2024-03-02T14:24:06;25.03;;;16.77;;
4210;SDS011;2119;48.828;12.396;2024-03-02T14:29:09;26.97;;;16.17;;
4210;SDS011;2119;48.828;12.396;2024-03-02T14:34:09;27.20;;;15.53;;
4210;SDS011;2119;48.828;12.396;2024-03-02T14:39:10;25.17;;;15.93;;
4210;SDS011;2119;48.828;12.396;2024-03-02T14:44:10;20.30;;;14.07;;
4210;SDS011;2119;48.828;12.396;2024-03-02T14:49:10;22.30;;;14.60;;
4210;SDS011;2119;48.828;12.396;2024-03-02T14:54:11;29.43;;;15.37;;
4210;SDS011;2119;48.828;12.396;2024-03-02T14:59:12;27.00;;;15.77;;
4210;SDS011;2119;48.828;12.396;2024-03-02T15:04:12;21.67;;;13.90;;
4210;SDS011;2119;48.828;12.396;2024-03-02T15:09:12;23.90;;;15.10;;
4210;SDS011;2119;48.828;12.396;2024-03-02T15:14:12;21.27;;;14.23;;
4210;SDS011;2119;48.828;12.396;2024-03-02T15:19:12;19.80;;;14.20;;
4210;SDS011;2119;48.828;12.396;2024-03-02T15:24:13;27.73;;;16.37;;
4210;SDS011;2119;48.828;12.396;2024-03-02T15:29:13;20.50;;;14.47;;
4210;SDS011;2119;48.828;12.396;2024-03-02T15:34:13;26.43;;;15.83;;
4210;SDS011;2119;48.828;12.396;2024-03-02T15:39:13;22.80;;;15.80;;
4210;SDS011;2119;48.828;12.396;2024-03-02T15:44:13;22.40;;;14.50;;
4210;SDS011;2119;48.828;12.396;2024-03-02T15:49:13;22.03;;;14.80;;
4210;SDS011;2119;48.828;12.396;2024-03-02T15:54:14;23.90;;;15.60;;
4210;SDS011;2119;48.828;12.396;2024-03-02T15:59:14;25.27;;;15.60;;
4210;SDS011;2119;48.828;12.396;2024-03-02T16:04:14;19.57;;;13.70;;
4210;SDS011;2119;48.828;12.396;2024-03-02T16:09:14;21.00;;;14.30;;
4210;SDS011;2119;48.828;12.396;2024-03-02T16:14:14;22.88;;;15.45;;
4210;SDS011;2119;48.828;12.396;2024-03-02T16:19:16;29.80;;;17.20;;
4210;SDS011;2119;48.828;12.396;2024-03-02T16:24:16;23.43;;;15.23;;
4210;SDS011;2119;48.828;12.396;2024-03-02T16:29:17;20.70;;;14.63;;
4210;SDS011;2119;48.828;12.396;2024-03-02T16:34:17;20.50;;;14.90;;
4210;SDS011;2119;48.828;12.396;2024-03-02T16:39:17;20.77;;;13.83;;
4210;SDS011;2119;48.828;12.396;2024-03-02T16:44:18;26.77;;;14.80;;
4210;SDS011;2119;48.828;12.396;2024-03-02T16:49:19;19.43;;;13.17;;
4210;SDS011;2119;48.828;12.396;2024-03-02T16:54:19;19.07;;;13.03;;
4210;SDS011;2119;48.828;12.396;2024-03-02T16:59:20;18.93;;;13.87;;
4210;SDS011;2119;48.828;12.396;2024-03-02T17:04:20;25.10;;;14.87;;
4210;SDS011;2119;48.828;12.396;2024-03-02T17:09:20;30.17;;;17.52;;
4210;SDS011;2119;48.828;12.396;2024-03-02T17:14:20;28.63;;;17.97;;
4210;SDS011;2119;48.828;12.396;2024-03-02T17:19:20;23.70;;;17.17;;
4210;SDS011;2119;48.828;12.396;2024-03-02T17:24:21;25.10;;;17.63;;
4210;SDS011;2119;48.828;12.396;2024-03-02T17:29:21;26.50;;;18.05;;
4210;SDS011;2119;48.828;12.396;2024-03-02T17:34:22;24.83;;;17.20;;
4210;SDS011;2119;48.828;12.396;2024-03-02T17:39:23;23.13;;;16.27;;
4210;SDS011;2119;48.828;12.396;2024-03-02T17:44:24;21.87;;;16.30;;
4210;SDS011;2119;48.828;12.396;2024-03-02T17:49:24;22.35;;;16.80;;
4210;SDS011;2119;48.828;12.396;2024-03-02T17:54:24;23.70;;;17.93;;
4210;SDS011;2119;48.828;12.396;2024-03-02T17:59:24;29.30;;;19.23;;
4210;SDS011;2119;48.828;12.396;2024-03-02T18:04:24;34.17;;;19.80;;
4210;SDS011;2119;48.828;12.396;2024-03-02T18:09:25;28.17;;;18.58;;
4210;SDS011;2119;48.828;12.396;2024-03-02T18:14:25;30.52;;;19.17;;
4210;SDS011;2119;48.828;12.396;2024-03-02T18:19:25;32.42;;;21.60;;
4210;SDS011;2119;48.828;12.396;2024-03-02T18:24:29;30.70;;;22.20;;
4210;SDS011;2119;48.828;12.396;2024-03-02T18:29:29;32.77;;;22.83;;
4210;SDS011;2119;48.828;12.396;2024-03-02T18:34:29;25.90;;;18.87;;
4210;SDS011;2119;48.828;12.396;2024-03-02T18:39:30;33.53;;;21.87;;
4210;SDS011;2119;48.828;12.396;2024-03-02T18:44:30;31.17;;;20.70;;
4210;SDS011;2119;48.828;12.396;2024-03-02T18:49:30;32.63;;;24.03;;
4210;SDS011;2119;48.828;12.396;2024-03-02T18:54:30;36.20;;;25.97;;
4210;SDS011;2119;48.828;12.396;2024-03-02T18:59:30;36.70;;;25.43;;
4210;SDS011;2119;48.828;12.396;2024-03-02T19:04:31;36.67;;;23.90;;
4210;SDS011;2119;48.828;12.396;2024-03-02T19:09:31;48.17;;;28.40;;
4210;SDS011;2119;48.828;12.396;2024-03-02T19:14:31;25.60;;;16.43;;
4210;SDS011;2119;48.828;12.396;2024-03-02T19:19:32;53.97;;;28.83;;
4210;SDS011;2119;48.828;12.396;2024-03-02T19:24:35;47.30;;;26.97;;
4210;SDS011;2119;48.828;12.396;2024-03-02T19:29:35;54.20;;;29.83;;
4210;SDS011;2119;48.828;12.396;2024-03-02T19:34:35;65.53;;;37.83;;
4210;SDS011;2119;48.828;12.396;2024-03-02T19:39:36;63.73;;;35.27;;
4210;SDS011;2119;48.828;12.396;2024-03-02T19:44:42;49.43;;;32.20;;
4210;SDS011;2119;48.828;12.396;2024-03-02T19:49:43;42.73;;;26.33;;
4210;SDS011;2119;48.828;12.396;2024-03-02T19:54:43;39.30;;;26.08;;
4210;SDS011;2119;48.828;12.396;2024-03-02T19:59:43;41.92;;;28.20;;
4210;SDS011;2119;48.828;12.396;2024-03-02T20:04:43;45.67;;;27.80;;
4210;SDS011;2119;48.828;12.396;2024-03-02T20:09:45;47.13;;;29.30;;
4210;SDS011;2119;48.828;12.396;2024-03-02T20:14:48;74.77;;;36.70;;
4210;SDS011;2119;48.828;12.396;2024-03-02T20:19:48;98.80;;;39.13;;
4210;SDS011;2119;48.828;12.396;2024-03-02T20:24:48;87.38;;;40.28;;
4210;SDS011;2119;48.828;12.396;2024-03-02T20:29:51;73.30;;;38.23;;
4210;SDS011;2119;48.828;12.396;2024-03-02T20:34:51;53.57;;;31.27;;
4210;SDS011;2119;48.828;12.396;2024-03-02T20:39:51;51.30;;;30.83;;
4210;SDS011;2119;48.828;12.396;2024-03-02T20:44:52;49.80;;;30.57;;
4210;SDS011;2119;48.828;12.396;2024-03-02T20:49:53;49.58;;;30.30;;
4210;SDS011;2119;48.828;12.396;2024-03-02T20:54:53;49.78;;;28.20;;
4210;SDS011;2119;48.828;12.396;2024-03-02T20:59:53;51.60;;;28.70;;
4210;SDS011;2119;48.828;12.396;2024-03-02T21:04:54;44.63;;;27.27;;
4210;SDS011;2119;48.828;12.396;2024-03-02T21:09:55;49.78;;;29.52;;
4210;SDS011;2119;48.828;12.396;2024-03-02T21:14:57;46.17;;;27.93;;
4210;SDS011;2119;48.828;12.396;2024-03-02T21:19:57;43.03;;;25.35;;
4210;SDS011;2119;48.828;12.396;2024-03-02T21:24:57;34.67;;;22.10;;
4210;SDS011;2119;48.828;12.396;2024-03-02T21:30:00;40.03;;;23.13;;
4210;SDS011;2119;48.828;12.396;2024-03-02T21:35:01;36.40;;;20.50;;
4210;SDS011;2119;48.828;12.396;2024-03-02T21:40:01;37.47;;;20.23;;
4210;SDS011;2119;48.828;12.396;2024-03-02T21:45:01;37.63;;;23.23;;
4210;SDS011;2119;48.828;12.396;2024-03-02T21:50:01;38.53;;;23.23;;
4210;SDS011;2119;48.828;12.396;2024-03-02T21:55:01;33.40;;;20.93;;
4210;SDS011;2119;48.828;12.396;2024-03-02T22:00:02;41.07;;;23.60;;
4210;SDS011;2119;48.828;12.396;2024-03-02T22:05:03;43.20;;;24.93;;
4210;SDS011;2119;48.828;12.396;2024-03-02T22:10:05;41.50;;;22.60;;
4210;SDS011;2119;48.828;12.396;2024-03-02T22:15:06;37.67;;;23.90;;
4210;SDS011;2119;48.828;12.396;2024-03-02T22:20:06;43.43;;;25.33;;
4210;SDS011;2119;48.828;12.396;2024-03-02T22:25:07;38.43;;;23.27;;
4210;SDS011;2119;48.828;12.396;2024-03-02T22:30:07;52.33;;;29.40;;
4210;SDS011;2119;48.828;12.396;2024-03-02T22:35:07;51.43;;;27.80;;
4210;SDS011;2119;48.828;12.396;2024-03-02T22:40:08;49.47;;;29.02;;
4210;SDS011;2119;48.828;12.396;2024-03-02T22:45:08;51.13;;;26.40;;
4210;SDS011;2119;48.828;12.396;2024-03-02T22:50:09;51.20;;;26.97;;
4210;SDS011;2119;48.828;12.396;2024-03-02T22:55:10;47.63;;;26.20;;
4210;SDS011;2119;48.828;12.396;2024-03-02T23:00:11;47.97;;;24.10;;
4210;SDS011;2119;48.828;12.396;2024-03-02T23:05:33;57.60;;;27.20;;
4210;SDS011;2119;48.828;12.396;2024-03-02T23:10:33;49.37;;;25.57;;
4210;SDS011;2119;48.828;12.396;2024-03-02T23:15:33;53.00;;;27.52;;
4210;SDS011;2119;48.828;12.396;2024-03-02T23:20:34;44.78;;;23.88;;
4210;SDS011;2119;48.828;12.396;2024-03-02T23:25:34;44.08;;;24.50;;
4210;SDS011;2119;48.828;12.396;2024-03-02T23:30:34;48.15;;;24.35;;
4210;SDS011;2119;48.828;12.396;2024-03-02T23:35:34;42.03;;;23.20;;
4210;SDS011;2119;48.828;12.396;2024-03-02T23:40:34;45.43;;;23.63;;
4210;SDS011;2119;48.828;12.396;2024-03-02T23:45:53;40.00;;;22.23;;
4210;SDS011;2119;48.828;12.396;2024-03-02T23:50:53;38.60;;;22.63;;
4210;SDS011;2119;48.828;12.396;2024-03-02T23:55:55;37.57;;;22.03;;
